createdAt,value
2022-10-23T00:01:26.347Z,7.70
2022-10-23T00:03:58.979Z,7.18
2022-10-23T00:06:26.476Z,8.30
2022-10-23T00:08:53.068Z,7.88
2022-10-23T00:11:22.297Z,7.72
2022-10-23T00:13:49.413Z,7.63
2022-10-23T00:16:15.857Z,8.20
2022-10-23T00:18:42.542Z,7.55
2022-10-23T00:21:11.401Z,7.88
2022-10-23T00:23:38.169Z,7.50
2022-10-23T00:26:04.914Z,7.75
2022-10-23T00:28:31.332Z,7.65
2022-10-23T00:30:57.656Z,7.22
2022-10-23T00:33:23.962Z,6.83
2022-10-23T00:35:50.303Z,7.45
2022-10-23T00:38:16.673Z,7.03
2022-10-23T00:40:44.769Z,6.78
2022-10-23T00:43:21.134Z,7.18
2022-10-23T00:45:47.907Z,6.90
2022-10-23T00:48:15.061Z,6.80
2022-10-23T00:50:42.135Z,7.07
2022-10-23T00:53:10.171Z,6.70
2022-10-23T00:55:38.345Z,7.10
2022-10-23T00:58:05.296Z,6.72
2022-10-23T01:00:44.075Z,6.72
2022-10-23T01:03:10.536Z,6.93
2022-10-23T01:08:48.719Z,6.53
2022-10-23T01:11:18.721Z,6.70
2022-10-23T01:16:49.745Z,6.68
2022-10-23T01:19:25.279Z,6.10
2022-10-23T01:22:00.311Z,6.00
2022-10-23T01:24:49.302Z,6.23
2022-10-23T01:27:20.400Z,6.38
2022-10-23T01:29:54.326Z,7.35
2022-10-23T01:32:30.965Z,6.22
2022-10-23T01:35:21.791Z,6.32
2022-10-23T01:37:54.027Z,6.15
2022-10-23T01:40:25.164Z,6.45
2022-10-23T01:42:56.331Z,6.55
2022-10-23T01:45:36.043Z,5.90
2022-10-23T01:48:04.477Z,6.30
2022-10-23T01:50:32.162Z,6.50
2022-10-23T01:52:58.657Z,6.25
2022-10-23T01:55:25.970Z,5.93
2022-10-23T01:57:53.686Z,6.40
2022-10-23T02:00:20.851Z,5.78
2022-10-23T02:02:50.209Z,6.47
2022-10-23T02:05:24.494Z,6.35
2022-10-23T02:07:52.597Z,6.03
2022-10-23T02:10:19.848Z,6.20
2022-10-23T02:12:49.054Z,5.78
2022-10-23T02:15:18.300Z,6.07
2022-10-23T02:18:10.649Z,5.72
2022-10-23T02:20:45.808Z,5.80
2022-10-23T02:23:31.217Z,5.97
2022-10-23T02:26:07.978Z,6.15
2022-10-23T02:28:45.418Z,6.20
2022-10-23T02:31:16.479Z,5.72
2022-10-23T02:33:45.840Z,5.72
2022-10-23T02:36:12.548Z,5.55
2022-10-23T02:38:41.810Z,5.47
2022-10-23T02:41:36.657Z,5.82
2022-10-23T02:44:24.333Z,5.30
2022-10-23T02:47:08.233Z,4.50
2022-10-23T02:49:42.624Z,5.53
2022-10-23T02:52:17.914Z,5.72
2022-10-23T02:54:56.043Z,5.30
2022-10-23T02:57:32.088Z,5.13
2022-10-23T03:00:12.893Z,4.70
2022-10-23T03:02:43.821Z,4.90
2022-10-23T03:05:16.365Z,4.45
2022-10-23T03:07:43.630Z,4.77
2022-10-23T03:10:10.262Z,4.65
2022-10-23T03:12:37.543Z,4.82
2022-10-23T03:15:05.382Z,4.72
2022-10-23T03:17:31.938Z,4.78
2022-10-23T03:19:58.311Z,4.70
2022-10-23T03:22:24.957Z,4.60
2022-10-23T03:24:51.353Z,5.00
2022-10-23T03:27:17.872Z,4.80
2022-10-23T03:29:44.204Z,4.72
2022-10-23T03:32:10.580Z,4.80
2022-10-23T03:34:36.935Z,4.68
2022-10-23T03:37:03.346Z,4.38
2022-10-23T03:39:29.754Z,4.50
2022-10-23T03:41:56.156Z,4.43
2022-10-23T03:44:22.464Z,4.50
2022-10-23T03:46:48.768Z,4.30
2022-10-23T03:49:15.102Z,4.82
2022-10-23T03:51:41.886Z,5.15
2022-10-23T03:54:08.817Z,4.20
2022-10-23T03:56:35.172Z,4.80
2022-10-23T03:59:01.609Z,4.20
2022-10-23T04:01:28.044Z,4.00
2022-10-23T04:03:54.589Z,4.05
2022-10-23T04:06:20.886Z,3.95
2022-10-23T04:08:47.319Z,3.90
2022-10-23T04:11:13.642Z,4.03
2022-10-23T04:13:40.030Z,3.88
2022-10-23T04:16:06.736Z,3.97
2022-10-23T04:18:33.102Z,4.63
2022-10-23T04:20:59.458Z,4.00
2022-10-23T04:23:25.829Z,4.15
2022-10-23T04:25:52.146Z,3.80
2022-10-23T04:28:18.474Z,3.80
2022-10-23T04:30:44.836Z,3.90
2022-10-23T04:33:11.152Z,3.80
2022-10-23T04:35:37.510Z,3.83
2022-10-23T04:38:03.896Z,4.00
2022-10-23T04:40:30.525Z,4.50
2022-10-23T04:42:57.234Z,3.90
2022-10-23T04:45:23.773Z,4.03
2022-10-23T04:47:50.164Z,4.15
2022-10-23T04:50:16.827Z,3.75
2022-10-23T04:52:43.598Z,3.83
2022-10-23T04:55:10.369Z,3.58
2022-10-23T04:57:36.732Z,3.83
2022-10-23T05:00:06.141Z,3.38
2022-10-23T05:02:32.720Z,3.88
2022-10-23T05:04:59.069Z,3.63
2022-10-23T05:07:25.439Z,3.65
2022-10-23T05:09:51.838Z,3.70
2022-10-23T05:12:18.482Z,3.78
2022-10-23T05:14:44.824Z,3.30
2022-10-23T05:17:40.525Z,3.50
2022-10-23T05:20:12.882Z,3.60
2022-10-23T05:22:42.606Z,3.47
2022-10-23T05:25:10.070Z,3.55
2022-10-23T05:27:36.475Z,3.35
2022-10-23T05:30:04.039Z,3.33
2022-10-23T05:32:32.137Z,3.45
2022-10-23T05:35:00.669Z,3.40
2022-10-23T05:37:27.247Z,3.70
2022-10-23T05:39:53.793Z,3.35
2022-10-23T05:42:20.199Z,3.60
2022-10-23T05:44:46.586Z,3.53
2022-10-23T05:47:12.930Z,3.80
2022-10-23T05:49:39.296Z,3.53
2022-10-23T05:52:05.971Z,4.00
2022-10-23T05:54:33.080Z,3.70
2022-10-23T05:56:59.457Z,3.97
2022-10-23T05:59:25.845Z,3.83
2022-10-23T06:01:52.385Z,3.72
2022-10-23T06:04:18.946Z,3.90
2022-10-23T06:06:46.468Z,3.85
2022-10-23T06:09:14.250Z,3.88
2022-10-23T06:11:41.718Z,4.10
2022-10-23T06:14:08.205Z,3.80
2022-10-23T06:16:34.643Z,4.22
2022-10-23T06:19:01.085Z,4.95
2022-10-23T06:21:27.477Z,4.38
2022-10-23T06:23:55.259Z,4.03
2022-10-23T06:26:21.894Z,3.83
2022-10-23T06:28:48.312Z,4.07
2022-10-23T06:31:16.226Z,4.50
2022-10-23T06:33:42.640Z,4.15
2022-10-23T06:36:10.526Z,4.03
2022-10-23T06:38:40.305Z,3.70
2022-10-23T06:41:12.327Z,3.95
2022-10-23T06:43:38.667Z,4.15
2022-10-23T06:46:05.229Z,3.70
2022-10-23T06:48:31.954Z,4.38
2022-10-23T06:50:59.417Z,4.15
2022-10-23T06:53:25.867Z,3.65
2022-10-23T06:55:55.287Z,3.70
2022-10-23T06:58:22.185Z,3.95
2022-10-23T07:00:48.556Z,3.45
2022-10-23T07:03:14.900Z,3.90
2022-10-23T07:05:41.282Z,3.40
2022-10-23T07:08:07.652Z,3.65
2022-10-23T07:10:34.366Z,3.78
2022-10-23T07:13:01.149Z,3.70
2022-10-23T07:15:27.856Z,4.07
2022-10-23T07:17:54.302Z,3.70
2022-10-23T07:20:21.275Z,3.95
2022-10-23T07:22:53.521Z,3.85
2022-10-23T07:25:25.109Z,4.00
2022-10-23T07:27:52.065Z,4.10
2022-10-23T07:30:18.647Z,3.92
2022-10-23T07:32:45.497Z,3.70
2022-10-23T07:37:39.868Z,3.53
2022-10-23T07:40:07.283Z,3.78
2022-10-23T07:42:34.000Z,3.90
2022-10-23T07:45:00.478Z,3.47
2022-10-23T07:47:26.948Z,3.53
2022-10-23T07:49:53.381Z,3.43
2022-10-23T07:52:19.864Z,3.33
2022-10-23T07:54:46.214Z,3.53
2022-10-23T07:57:12.544Z,3.95
2022-10-23T07:59:38.947Z,3.55
2022-10-23T08:02:13.092Z,4.05
2022-10-23T08:04:40.418Z,3.05
2022-10-23T08:07:07.004Z,3.83
2022-10-23T08:09:34.547Z,3.08
2022-10-23T08:12:01.861Z,3.30
2022-10-23T08:14:28.724Z,3.63
2022-10-23T08:16:55.227Z,3.60
2022-10-23T08:19:21.775Z,3.00
2022-10-23T08:21:48.156Z,3.03
2022-10-23T08:24:14.708Z,3.00
2022-10-23T08:26:41.363Z,3.65
2022-10-23T08:29:07.800Z,3.03
2022-10-23T08:31:34.146Z,3.20
2022-10-23T08:34:00.697Z,3.83
2022-10-23T08:36:28.763Z,3.55
2022-10-23T08:38:56.906Z,2.90
2022-10-23T08:41:25.378Z,3.42
2022-10-23T08:44:03.079Z,3.50
2022-10-23T08:46:34.655Z,3.50
2022-10-23T08:49:16.737Z,3.90
2022-10-23T08:51:49.101Z,3.22
2022-10-23T08:54:33.924Z,2.80
2022-10-23T08:57:12.800Z,2.90
2022-10-23T08:59:59.242Z,3.03
2022-10-23T09:02:25.810Z,3.58
2022-10-23T09:04:54.008Z,2.80
2022-10-23T09:07:32.301Z,2.75
2022-10-23T09:10:11.046Z,3.13
2022-10-23T09:12:37.803Z,3.08
2022-10-23T09:15:04.213Z,2.58
2022-10-23T09:17:32.510Z,3.45
2022-10-23T09:20:22.840Z,2.70
2022-10-23T09:23:14.062Z,2.80
2022-10-23T09:25:42.478Z,2.65
2022-10-23T09:28:24.256Z,3.10
2022-10-23T09:30:52.147Z,2.75
2022-10-23T09:33:27.122Z,3.10
2022-10-23T09:35:59.599Z,2.80
2022-10-23T09:38:45.818Z,2.65
2022-10-23T09:41:31.061Z,2.50
2022-10-23T09:44:29.721Z,2.55
2022-10-23T09:47:00.810Z,2.43
2022-10-23T09:49:29.994Z,2.88
2022-10-23T09:52:02.039Z,2.80
2022-10-23T09:54:32.056Z,2.38
2022-10-23T09:57:04.774Z,2.22
2022-10-23T09:59:35.690Z,2.70
2022-10-23T10:02:05.441Z,2.60
2022-10-23T10:04:34.418Z,2.40
2022-10-23T10:07:03.288Z,2.60
2022-10-23T10:09:29.830Z,2.65
2022-10-23T10:12:07.579Z,2.57
2022-10-23T10:14:42.920Z,2.70
2022-10-23T10:17:20.894Z,2.60
2022-10-23T10:19:50.325Z,2.70
2022-10-23T10:22:34.169Z,2.60
2022-10-23T10:25:01.240Z,2.50
2022-10-23T10:27:27.670Z,2.65
2022-10-23T10:30:13.108Z,2.38
2022-10-23T10:32:59.574Z,1.80
2022-10-23T10:35:42.191Z,2.42
2022-10-23T10:38:24.027Z,2.20
2022-10-23T10:41:16.823Z,2.03
2022-10-23T10:44:13.167Z,2.35
2022-10-23T10:47:14.924Z,1.92
2022-10-23T10:50:08.141Z,2.60
2022-10-23T10:52:59.884Z,2.23
2022-10-23T10:55:34.095Z,2.10
2022-10-23T10:58:12.105Z,2.40
2022-10-23T11:00:39.588Z,2.00
2022-10-23T11:03:23.495Z,2.05
2022-10-23T11:05:51.660Z,1.90
2022-10-23T11:08:22.488Z,2.03
2022-10-23T11:10:54.212Z,2.20
2022-10-23T11:13:34.837Z,2.22
2022-10-23T11:16:23.890Z,1.80
2022-10-23T11:19:11.501Z,1.77
2022-10-23T11:21:53.499Z,1.90
2022-10-23T11:24:44.146Z,1.75
2022-10-23T11:27:31.241Z,1.45
2022-10-23T11:30:18.686Z,1.70
2022-10-23T11:32:57.051Z,1.90
2022-10-23T11:35:41.513Z,1.67
2022-10-23T11:38:19.121Z,1.65
2022-10-23T11:41:30.509Z,1.90
2022-10-23T11:44:05.143Z,1.80
2022-10-23T11:46:35.330Z,1.50
2022-10-23T11:49:05.956Z,1.70
2022-10-23T11:51:37.118Z,1.60
2022-10-23T11:54:16.121Z,1.52
2022-10-23T11:57:10.418Z,2.03
2022-10-23T11:59:49.196Z,1.37
2022-10-23T12:02:21.915Z,2.05
2022-10-23T12:04:52.432Z,1.63
2022-10-23T12:07:26.705Z,1.80
2022-10-23T12:09:57.914Z,1.90
2022-10-23T12:12:35.146Z,1.77
2022-10-23T12:15:18.789Z,1.85
2022-10-23T12:17:47.792Z,1.63
2022-10-23T12:20:14.366Z,1.73
2022-10-23T12:22:56.155Z,1.98
2022-10-23T12:25:22.548Z,1.70
2022-10-23T12:27:58.831Z,1.90
2022-10-23T12:30:45.305Z,1.80
2022-10-23T12:33:25.449Z,1.95
2022-10-23T12:36:10.613Z,2.08
2022-10-23T12:38:45.479Z,1.30
2022-10-23T12:41:31.989Z,1.77
2022-10-23T12:44:01.916Z,1.77
2022-10-23T12:46:36.511Z,2.03
2022-10-23T12:49:12.815Z,1.80
2022-10-23T12:51:39.495Z,2.50
2022-10-23T12:54:19.658Z,1.73
2022-10-23T12:56:47.512Z,1.95
2022-10-23T12:59:20.619Z,1.80
2022-10-23T13:01:52.399Z,1.60
2022-10-23T13:04:22.193Z,1.80
2022-10-23T13:06:50.369Z,1.85
2022-10-23T13:09:39.265Z,1.40
2022-10-23T13:12:07.298Z,1.45
2022-10-23T13:14:43.758Z,1.30
2022-10-23T13:17:13.150Z,1.70
2022-10-23T13:19:39.576Z,1.85
2022-10-23T13:22:21.445Z,1.60
2022-10-23T13:24:48.770Z,1.63
2022-10-23T13:27:33.293Z,2.05
2022-10-23T13:30:00.306Z,2.23
2022-10-23T13:32:30.200Z,1.50
2022-10-23T13:35:20.954Z,1.48
2022-10-23T13:37:48.878Z,1.98
2022-10-23T13:40:27.789Z,1.40
2022-10-23T13:42:57.136Z,1.43
2022-10-23T13:45:25.978Z,1.58
2022-10-23T13:47:53.285Z,1.60
2022-10-23T13:50:20.352Z,2.35
2022-10-23T13:52:47.078Z,1.30
2022-10-23T13:55:21.198Z,1.40
2022-10-23T13:57:48.085Z,1.33
2022-10-23T14:00:15.253Z,1.73
2022-10-23T14:02:43.059Z,1.50
2022-10-23T14:05:10.645Z,1.75
2022-10-23T14:07:37.179Z,1.77
2022-10-23T14:10:04.381Z,1.60
2022-10-23T14:12:31.143Z,1.70
2022-10-23T14:14:57.562Z,1.67
2022-10-23T14:17:23.940Z,1.30
2022-10-23T14:19:50.501Z,1.80
2022-10-23T14:22:18.142Z,1.70
2022-10-23T14:24:44.626Z,1.80
2022-10-23T14:27:12.194Z,1.77
2022-10-23T14:29:40.575Z,1.30
2022-10-23T14:32:07.403Z,1.57
2022-10-23T14:34:33.993Z,1.58
2022-10-23T14:37:08.718Z,1.60
2022-10-23T14:39:35.684Z,1.60
2022-10-23T14:42:02.191Z,1.58
2022-10-23T14:44:28.816Z,1.60
2022-10-23T14:46:55.309Z,1.33
2022-10-23T14:49:21.721Z,1.35
2022-10-23T14:51:48.287Z,1.60
2022-10-23T14:54:15.790Z,1.80
2022-10-23T14:56:42.410Z,1.70
2022-10-23T14:59:10.628Z,2.35
2022-10-23T15:01:45.359Z,1.77
2022-10-23T15:04:16.473Z,1.88
2022-10-23T15:06:44.006Z,1.60
2022-10-23T15:09:10.754Z,2.10
2022-10-23T15:11:37.475Z,1.83
2022-10-23T15:14:03.936Z,1.42
2022-10-23T15:16:30.440Z,1.42
2022-10-23T15:19:03.139Z,1.45
2022-10-23T15:21:29.639Z,1.50
2022-10-23T15:23:56.207Z,1.77
2022-10-23T15:26:24.057Z,1.50
2022-10-23T15:28:59.394Z,1.88
2022-10-23T15:31:28.881Z,1.80
2022-10-23T15:34:01.371Z,2.17
2022-10-23T15:36:28.035Z,1.83
2022-10-23T15:38:54.725Z,1.98
2022-10-23T15:41:28.703Z,2.28
2022-10-23T15:43:55.247Z,1.77
2022-10-23T15:46:21.928Z,1.97
2022-10-23T15:48:48.628Z,1.85
2022-10-23T15:51:15.181Z,1.95
2022-10-23T15:53:41.727Z,2.10
2022-10-23T15:56:08.501Z,1.83
2022-10-23T15:58:34.992Z,2.27
2022-10-23T16:01:06.644Z,1.90
2022-10-23T16:03:38.615Z,2.17
2022-10-23T16:06:11.142Z,2.53
2022-10-23T16:08:38.666Z,2.35
2022-10-23T16:11:17.721Z,2.23
2022-10-23T16:13:44.944Z,2.63
2022-10-23T16:16:12.430Z,2.35
2022-10-23T16:18:39.349Z,2.10
2022-10-23T16:21:07.597Z,2.33
2022-10-23T16:23:35.080Z,2.80
2022-10-23T16:26:06.019Z,2.60
2022-10-23T16:28:33.217Z,2.40
2022-10-23T16:31:00.407Z,2.30
2022-10-23T16:33:27.643Z,2.53
2022-10-23T16:35:54.278Z,2.43
2022-10-23T16:38:20.958Z,2.42
2022-10-23T16:40:52.470Z,2.15
2022-10-23T16:43:19.178Z,2.50
2022-10-23T16:45:45.726Z,2.95
2022-10-23T16:48:12.443Z,2.90
2022-10-23T16:53:07.348Z,2.58
2022-10-23T16:55:33.998Z,2.30
2022-10-23T16:58:00.703Z,2.60
2022-10-23T17:00:34.878Z,3.23
2022-10-23T17:03:05.195Z,3.05
2022-10-23T17:05:35.438Z,3.20
2022-10-23T17:08:01.944Z,3.00
2022-10-23T17:10:28.461Z,2.75
2022-10-23T17:12:54.888Z,2.73
2022-10-23T17:15:21.277Z,2.65
2022-10-23T17:17:47.749Z,3.47
2022-10-23T17:20:14.164Z,2.83
2022-10-23T17:22:40.739Z,2.45
2022-10-23T17:25:08.040Z,2.47
2022-10-23T17:27:34.542Z,2.60
2022-10-23T17:30:00.965Z,2.00
2022-10-23T17:32:27.481Z,2.05
2022-10-23T17:34:54.111Z,2.55
2022-10-23T17:37:20.620Z,1.90
2022-10-23T17:39:47.505Z,2.25
2022-10-23T17:42:14.094Z,2.22
2022-10-23T17:44:40.563Z,2.42
2022-10-23T17:47:07.075Z,2.38
2022-10-23T17:49:33.503Z,2.20
2022-10-23T17:51:59.926Z,2.30
2022-10-23T17:54:27.481Z,3.33
2022-10-23T17:56:54.340Z,2.08
2022-10-23T17:59:20.921Z,2.55
2022-10-23T18:01:48.872Z,2.40
2022-10-23T18:04:17.128Z,2.67
2022-10-23T18:06:47.424Z,2.60
2022-10-23T18:09:14.689Z,2.15
2022-10-23T18:11:45.397Z,2.25
2022-10-23T18:14:14.333Z,2.37
2022-10-23T18:16:40.827Z,2.65
2022-10-23T18:19:07.986Z,2.20
2022-10-23T18:21:35.791Z,2.05
2022-10-23T18:24:03.127Z,2.38
2022-10-23T18:26:32.229Z,2.20
2022-10-23T18:28:59.594Z,2.13
2022-10-23T18:31:29.623Z,2.10
2022-10-23T18:34:03.167Z,1.73
2022-10-23T18:36:32.438Z,1.70
2022-10-23T18:38:59.465Z,2.00
2022-10-23T18:41:26.155Z,1.67
2022-10-23T18:43:53.741Z,2.28
2022-10-23T18:46:21.691Z,1.77
2022-10-23T18:48:50.734Z,1.80
2022-10-23T18:51:21.599Z,2.00
2022-10-23T18:53:49.214Z,1.80
2022-10-23T18:56:21.689Z,2.20
2022-10-23T18:58:53.166Z,2.10
2022-10-23T19:01:21.070Z,2.00
2022-10-23T19:03:47.978Z,1.73
2022-10-23T19:06:15.228Z,1.80
2022-10-23T19:08:43.918Z,1.63
2022-10-23T19:11:11.818Z,1.75
2022-10-23T19:13:39.489Z,1.88
2022-10-23T19:16:12.056Z,2.10
2022-10-23T19:18:42.431Z,2.10
2022-10-23T19:21:09.327Z,2.20
2022-10-23T19:23:37.945Z,2.17
2022-10-23T19:26:08.831Z,1.83
2022-10-23T19:28:37.975Z,2.10
2022-10-23T19:31:04.898Z,1.77
2022-10-23T19:33:32.533Z,1.60
2022-10-23T19:36:01.253Z,1.88
2022-10-23T19:38:31.728Z,1.52
2022-10-23T19:40:58.221Z,2.07
2022-10-23T19:43:24.668Z,1.77
2022-10-23T19:45:51.282Z,1.48
2022-10-23T19:48:17.937Z,1.83
2022-10-23T19:50:44.585Z,1.83
2022-10-23T19:53:11.163Z,2.00
2022-10-23T19:55:37.735Z,1.95
2022-10-23T19:58:04.327Z,1.70
2022-10-23T20:00:30.773Z,2.10
2022-10-23T20:02:57.407Z,1.90
2022-10-23T20:05:23.998Z,1.53
2022-10-23T20:07:51.384Z,2.05
2022-10-23T20:10:17.912Z,2.25
2022-10-23T20:12:51.489Z,1.80
2022-10-23T20:15:23.519Z,1.90
2022-10-23T20:17:49.991Z,2.00
2022-10-23T20:20:16.494Z,1.73
2022-10-23T20:22:44.131Z,1.70
2022-10-23T20:25:10.808Z,1.88
2022-10-23T20:30:03.903Z,1.27
2022-10-23T20:32:30.393Z,1.30
2022-10-23T20:34:57.007Z,2.08
2022-10-23T20:37:23.515Z,1.17
2022-10-23T20:39:49.981Z,1.77
2022-10-23T20:42:16.461Z,0.83
2022-10-23T20:44:43.025Z,1.40
2022-10-23T20:47:09.623Z,1.10
2022-10-23T20:49:36.204Z,1.05
2022-10-23T20:52:03.142Z,0.90
2022-10-23T20:54:30.021Z,0.60
2022-10-23T20:56:57.107Z,0.70
2022-10-23T20:59:23.902Z,0.40
2022-10-23T21:01:53.249Z,0.60
2022-10-23T21:04:24.726Z,0.50
2022-10-23T21:07:10.857Z,0.40
2022-10-23T21:09:38.935Z,0.60
2022-10-23T21:12:06.625Z,0.40
2022-10-23T21:14:33.637Z,0.52
2022-10-23T21:17:00.456Z,0.40
2022-10-23T21:19:27.299Z,0.30
2022-10-23T21:21:54.321Z,0.60
2022-10-23T21:24:20.833Z,0.22
2022-10-23T21:26:47.482Z,0.35
2022-10-23T21:29:19.071Z,0.20
2022-10-23T21:31:54.987Z,0.30
2022-10-23T21:34:22.280Z,0.30
2022-10-23T21:37:11.531Z,0.20
2022-10-23T21:39:35.640Z,0.30
2022-10-23T21:42:02.091Z,0.38
2022-10-23T21:44:28.727Z,0.50
2022-10-23T21:46:55.332Z,0.35
2022-10-23T21:49:21.866Z,0.25
2022-10-23T21:51:48.638Z,0.50
2022-10-23T21:54:15.443Z,0.28
2022-10-23T21:56:47.879Z,0.30
2022-10-23T21:59:20.254Z,0.40
2022-10-23T22:01:48.503Z,0.40
2022-10-23T22:04:19.452Z,0.40
2022-10-23T22:06:47.883Z,0.30
2022-10-23T22:09:17.316Z,0.23
2022-10-23T22:11:43.859Z,0.43
2022-10-23T22:14:10.434Z,0.30
2022-10-23T22:16:37.251Z,0.30
2022-10-23T22:19:03.929Z,0.32
2022-10-23T22:21:31.327Z,0.40
2022-10-23T22:23:59.914Z,0.32
2022-10-23T22:26:32.145Z,0.77
2022-10-23T22:29:01.657Z,0.20
2022-10-23T22:31:31.553Z,0.55
2022-10-23T22:33:58.939Z,0.33
2022-10-23T22:36:25.819Z,0.30
2022-10-23T22:38:52.746Z,0.40
2022-10-23T22:41:19.382Z,0.32
2022-10-23T22:43:46.048Z,0.30
2022-10-23T22:46:14.599Z,0.40
2022-10-23T22:48:41.357Z,0.60
2022-10-23T22:51:10.314Z,0.57
2022-10-23T22:53:36.804Z,0.50
2022-10-23T22:56:11.719Z,0.60
2022-10-23T22:58:38.120Z,0.63
2022-10-23T23:01:18.804Z,0.60
2022-10-23T23:03:45.882Z,0.85
2022-10-23T23:06:12.787Z,0.52
2022-10-23T23:08:40.401Z,0.70
2022-10-23T23:11:10.642Z,1.00
2022-10-23T23:13:37.040Z,0.60
2022-10-23T23:16:04.012Z,0.60
2022-10-23T23:18:31.133Z,0.47
2022-10-23T23:21:02.250Z,0.63
2022-10-23T23:23:29.019Z,0.60
2022-10-23T23:25:55.530Z,0.50
2022-10-23T23:28:22.048Z,0.65
2022-10-23T23:30:48.935Z,0.50
2022-10-23T23:33:19.358Z,0.65
2022-10-23T23:35:48.013Z,1.20
2022-10-23T23:38:14.352Z,0.50
2022-10-23T23:40:40.751Z,0.50
2022-10-23T23:43:07.888Z,0.77
2022-10-23T23:45:34.265Z,0.60
2022-10-23T23:48:00.589Z,0.77
2022-10-23T23:50:27.916Z,0.75
2022-10-23T23:52:54.285Z,0.70
2022-10-23T23:55:20.634Z,0.52
2022-10-23T23:57:47.292Z,0.60
